world map with HRB marked

HRB - Airport

This information may not be accurate or current and is not valid for navigation or flight planning. No warranty of fitness for any purpose is made or implied.

flag of China

Donate via PayPal

Additional information is available on the NEW Great Circle Mapper

Location
City:  Harbin, Heilongjiang, China
Name:Harbin Taiping International Airport
ICAO / IATA:ZYHB / HRB

Details
Type:Airport (Aerodrome, Airfield)
Use:Public/Civil
Latitude:45°38'N (45.625)
Longitude:126°15'E (126.252)
Elevation:456 ft (139 m)
Runways:1
Longest:10499 × 148 ft (3200 × 45 m)

Time
Timezone:UTC+8 (DST+10)
Local Time:

Weather
METAR:ZYHB  041400Z 04002MPS 6000 NSC M17/M24 Q1018 NOSIG
TAF:ZYHB  (expired)

Related Locations
Nearby:
Farthest:SAVU: 12017 mi / 19339 km
Comodoro Rivadavia [Comodoro Rivadavia UIR], AR

Find:

   beyond  
but within

Other Information
Maps:
Links:
Sources:

  


 


Great Circle Mapper   Great Circle Mapper
Great Circle Mapper FAQ   Great Circle Mapper FAQ
  Karl's Home Page
KLSē   KLSē Home
   GC on Facebook
Airlines of the World   Airlines of the World
Donate via PayPal


Copyright © 2004-2022, Karl L. Swartz. All rights reserved.
All trademarks mentioned herein belong to their respective owners.

Please see credits for attribution and copyright information.

Karl Swartz <karl@kls2.com>
  Powered by FreeBSD
Valid HTML 4.01!
Labeled with ICRA
hCard Microformat
Geo Microformat